createdAt,value
2022-11-04T00:02:05.097Z,16.02
2022-11-04T00:04:32.553Z,15.77
2022-11-04T00:07:23.793Z,14.32
2022-11-04T00:09:53.430Z,13.50
2022-11-04T00:12:33.102Z,13.57
2022-11-04T00:18:11.894Z,10.35
2022-11-04T00:21:45.562Z,9.30
2022-11-04T00:24:33.160Z,8.68
2022-11-04T00:27:19.459Z,7.47
2022-11-04T00:33:32.967Z,5.30
2022-11-04T00:36:00.363Z,5.65
2022-11-04T00:39:30.825Z,4.90
2022-11-04T00:42:26.795Z,4.72
2022-11-04T00:45:23.537Z,4.70
2022-11-04T00:48:06.468Z,4.72
2022-11-04T00:50:34.104Z,4.45
2022-11-04T00:53:02.214Z,4.75
2022-11-04T00:55:29.959Z,4.13
2022-11-04T00:57:58.679Z,4.32
2022-11-04T01:00:26.355Z,4.75
2022-11-04T01:04:01.848Z,4.75
2022-11-04T01:06:29.115Z,4.07
2022-11-04T01:13:22.730Z,3.72
2022-11-04T01:15:50.511Z,4.35
2022-11-04T01:18:19.144Z,4.20
2022-11-04T01:28:16.807Z,5.03
2022-11-04T01:29:54.566Z,5.50
2022-11-04T01:32:21.937Z,6.40
2022-11-04T01:34:59.868Z,6.85
2022-11-04T01:37:27.270Z,7.22
2022-11-04T01:39:54.595Z,7.40
2022-11-04T01:42:22.980Z,7.80
2022-11-04T01:44:53.149Z,8.30
2022-11-04T01:48:14.675Z,7.90
2022-11-04T01:50:42.056Z,8.38
2022-11-04T01:53:16.436Z,9.23
2022-11-04T01:55:54.479Z,9.25
2022-11-04T01:58:25.889Z,9.32
2022-11-04T02:01:34.266Z,10.48
2022-11-04T02:08:08.457Z,11.27
2022-11-04T02:10:38.034Z,12.20
2022-11-04T02:13:06.236Z,13.52
2022-11-04T02:15:48.938Z,13.05
2022-11-04T02:18:39.844Z,14.48
2022-11-04T02:21:17.667Z,14.18
2022-11-04T02:28:34.723Z,14.70
2022-11-04T02:35:41.793Z,13.65
2022-11-04T02:38:14.982Z,13.30
2022-11-04T02:45:14.909Z,12.90
2022-11-04T02:47:51.504Z,12.90
2022-11-04T02:50:38.078Z,12.50
2022-11-04T02:53:16.625Z,11.95
2022-11-04T02:56:42.936Z,11.20
2022-11-04T02:59:50.176Z,10.82
2022-11-04T03:06:55.016Z,10.48
2022-11-04T03:09:41.016Z,9.35
2022-11-04T03:12:15.055Z,8.90
2022-11-04T03:14:48.530Z,8.65
2022-11-04T03:17:27.335Z,8.65
2022-11-04T03:20:28.299Z,9.27
2022-11-04T03:23:02.007Z,8.73
2022-11-04T03:25:38.506Z,10.07
2022-11-04T03:28:25.709Z,10.45
2022-11-04T03:31:00.037Z,10.35
2022-11-04T03:33:40.123Z,9.93
2022-11-04T03:40:41.881Z,11.30
2022-11-04T03:43:14.317Z,11.68
2022-11-04T03:46:09.845Z,10.77
2022-11-04T03:48:37.467Z,11.70
2022-11-04T03:51:04.848Z,12.00
2022-11-04T03:53:32.925Z,12.45
2022-11-04T03:56:29.914Z,13.05
2022-11-04T03:59:23.301Z,12.55
2022-11-04T04:01:55.734Z,12.60
2022-11-04T04:04:38.747Z,13.13
2022-11-04T04:10:59.750Z,14.13
2022-11-04T04:13:43.448Z,14.77
2022-11-04T04:17:07.309Z,15.88
2022-11-04T04:25:13.972Z,15.50
2022-11-04T04:28:30.285Z,15.35
2022-11-04T04:31:02.326Z,17.55
2022-11-04T04:33:29.879Z,16.02
2022-11-04T04:36:00.898Z,17.48
2022-11-04T04:45:38.653Z,16.90
2022-11-04T04:48:19.257Z,18.40
2022-11-04T04:51:14.845Z,18.75
2022-11-04T04:53:42.203Z,18.42
2022-11-04T04:56:09.767Z,18.38
2022-11-04T05:01:55.094Z,19.40
2022-11-04T05:04:31.125Z,17.65
2022-11-04T05:06:58.543Z,17.73
2022-11-04T05:10:15.221Z,18.83
2022-11-04T05:13:01.485Z,18.63
2022-11-04T05:15:30.131Z,19.00
2022-11-04T05:17:59.443Z,20.27
2022-11-04T05:24:14.386Z,18.85
2022-11-04T05:29:56.212Z,20.23
2022-11-04T05:32:23.776Z,20.50
2022-11-04T05:37:53.089Z,20.15
2022-11-04T05:53:21.788Z,22.00
2022-11-04T05:55:53.368Z,20.63
2022-11-04T06:01:31.105Z,21.05
2022-11-04T06:07:59.547Z,21.55
2022-11-04T06:10:30.296Z,23.40
2022-11-04T06:13:03.152Z,22.58
2022-11-04T06:15:30.554Z,23.10
2022-11-04T06:17:57.889Z,24.20
2022-11-04T06:20:25.321Z,23.08
2022-11-04T06:27:07.533Z,23.73
2022-11-04T06:29:41.100Z,21.88
2022-11-04T06:32:09.792Z,25.90
2022-11-04T06:34:37.504Z,24.63
2022-11-04T06:37:04.866Z,25.95
2022-11-04T06:39:32.805Z,24.98
2022-11-04T06:42:02.705Z,25.63
2022-11-04T06:44:31.787Z,26.88
2022-11-04T06:46:59.469Z,28.42
2022-11-04T06:49:26.926Z,27.42
2022-11-04T06:54:41.788Z,27.40
2022-11-04T06:57:11.833Z,21.77
2022-11-04T06:59:39.659Z,17.23
2022-11-04T07:02:07.724Z,13.85
2022-11-04T07:04:39.655Z,11.13
2022-11-04T07:07:06.967Z,8.30
2022-11-04T07:09:35.386Z,8.55
2022-11-04T07:12:04.473Z,8.00
2022-11-04T07:14:31.913Z,7.35
2022-11-04T07:16:59.361Z,4.60
2022-11-04T07:19:26.637Z,3.25
2022-11-04T07:21:53.951Z,2.88
2022-11-04T07:24:21.358Z,2.75
2022-11-04T07:26:48.640Z,2.72
2022-11-04T07:29:16.077Z,3.13
2022-11-04T07:32:03.597Z,2.67
2022-11-04T07:34:30.871Z,2.53
2022-11-04T07:36:58.186Z,2.42
2022-11-04T07:39:25.525Z,2.30
2022-11-04T07:41:59.156Z,1.50
2022-11-04T07:44:26.964Z,1.42
2022-11-04T07:46:54.284Z,1.45
2022-11-04T07:49:21.931Z,1.52
2022-11-04T07:51:52.022Z,1.52
2022-11-04T07:54:19.282Z,1.23
2022-11-04T07:56:46.731Z,1.40
2022-11-04T07:59:14.264Z,1.60
2022-11-04T08:01:44.716Z,1.30
2022-11-04T08:04:12.100Z,1.40
2022-11-04T08:06:39.414Z,1.50
2022-11-04T08:09:06.896Z,1.52
2022-11-04T08:11:34.288Z,1.60
2022-11-04T08:14:03.898Z,1.45
2022-11-04T08:16:34.344Z,1.65
2022-11-04T08:19:02.814Z,0.93
2022-11-04T08:21:32.113Z,0.93
2022-11-04T08:23:59.584Z,0.75
2022-11-04T08:27:01.321Z,0.90
2022-11-04T08:29:29.483Z,0.75
2022-11-04T08:31:56.867Z,0.82
2022-11-04T08:34:24.155Z,0.70
2022-11-04T08:36:54.021Z,0.50
2022-11-04T08:39:21.566Z,0.55
2022-11-04T08:41:52.243Z,0.30
2022-11-04T08:44:21.872Z,0.25
2022-11-04T08:46:49.573Z,0.40
2022-11-04T08:49:21.032Z,0.40
2022-11-04T08:52:20.356Z,0.40
2022-11-04T08:54:48.034Z,0.30
2022-11-04T08:57:15.695Z,0.43
2022-11-04T08:59:43.230Z,0.50
2022-11-04T09:02:15.798Z,0.40
2022-11-04T09:04:43.447Z,0.40
2022-11-04T09:07:11.937Z,0.50
2022-11-04T09:09:41.042Z,0.40
2022-11-04T09:12:12.047Z,0.50
2022-11-04T09:14:39.663Z,0.50
2022-11-04T09:17:07.135Z,0.50
2022-11-04T09:19:34.473Z,0.50
2022-11-04T09:22:01.738Z,0.40
2022-11-04T09:24:30.010Z,0.50
2022-11-04T09:27:21.989Z,0.50
2022-11-04T09:29:49.800Z,0.60
2022-11-04T09:32:17.214Z,0.70
2022-11-04T09:34:44.530Z,0.50
2022-11-04T09:37:11.836Z,0.60
2022-11-04T09:39:39.163Z,0.60
2022-11-04T09:42:25.102Z,0.40
2022-11-04T09:47:52.944Z,0.60
2022-11-04T09:50:32.010Z,0.43
2022-11-04T09:53:06.822Z,0.73
2022-11-04T09:56:00.154Z,0.40
2022-11-04T09:58:35.034Z,0.47
2022-11-04T10:01:19.345Z,0.70
2022-11-04T10:03:59.038Z,0.98
2022-11-04T10:06:50.086Z,0.73
2022-11-04T10:09:28.651Z,0.40
2022-11-04T10:12:48.871Z,0.50
2022-11-04T10:15:43.942Z,0.90
2022-11-04T10:18:35.417Z,0.68
2022-11-04T10:21:40.217Z,0.80
2022-11-04T10:24:36.039Z,0.68
2022-11-04T10:27:40.639Z,0.57
2022-11-04T10:30:18.701Z,0.32
2022-11-04T10:32:53.024Z,0.50
2022-11-04T10:35:29.499Z,0.50
2022-11-04T10:38:27.219Z,0.50
2022-11-04T10:40:56.306Z,0.85
2022-11-04T10:43:37.366Z,0.85
2022-11-04T10:46:39.028Z,0.85
2022-11-04T10:50:00.195Z,1.27
2022-11-04T10:52:35.347Z,1.02
2022-11-04T10:55:31.101Z,1.13
2022-11-04T10:57:59.640Z,1.15
2022-11-04T11:00:39.569Z,1.08
2022-11-04T11:03:26.044Z,1.33
2022-11-04T11:05:55.214Z,0.80
2022-11-04T11:08:37.091Z,0.63
2022-11-04T11:11:06.804Z,0.68
2022-11-04T11:13:40.031Z,0.65
2022-11-04T11:16:19.205Z,0.45
2022-11-04T11:19:12.348Z,0.43
2022-11-04T11:21:45.472Z,0.57
2022-11-04T11:24:30.792Z,0.30
2022-11-04T11:27:11.833Z,0.68
2022-11-04T11:29:40.501Z,0.30
2022-11-04T11:32:35.903Z,0.25
2022-11-04T11:35:07.771Z,0.30
2022-11-04T11:37:36.895Z,0.32
2022-11-04T11:40:04.517Z,0.30
2022-11-04T11:42:32.594Z,0.50
2022-11-04T11:45:00.333Z,0.30
2022-11-04T11:47:30.371Z,0.40
2022-11-04T11:50:31.182Z,0.20
2022-11-04T11:53:15.350Z,0.40
2022-11-04T11:55:57.715Z,0.40
2022-11-04T12:02:13.113Z,0.30
2022-11-04T12:10:53.459Z,0.20
2022-11-04T12:13:29.103Z,0.20
2022-11-04T12:16:23.183Z,0.20
2022-11-04T12:18:56.567Z,0.25
2022-11-04T12:21:37.662Z,0.30
2022-11-04T12:24:06.907Z,0.40
2022-11-04T12:26:40.129Z,0.20
2022-11-04T12:29:29.861Z,0.90
2022-11-04T12:32:10.291Z,0.60
2022-11-04T12:35:23.879Z,0.20
2022-11-04T12:38:17.458Z,0.30
2022-11-04T12:41:37.672Z,0.20
2022-11-04T12:44:01.988Z,0.20
2022-11-04T12:46:47.740Z,0.32
2022-11-04T12:49:40.334Z,0.30
2022-11-04T12:52:42.582Z,0.40
2022-11-04T12:55:47.105Z,0.30
2022-11-04T12:58:24.310Z,0.28
2022-11-04T13:01:05.127Z,0.20
2022-11-04T13:04:11.879Z,0.47
2022-11-04T13:07:04.009Z,0.20
2022-11-04T13:10:12.401Z,0.30
2022-11-04T13:12:43.748Z,0.20
2022-11-04T13:15:28.532Z,0.30
2022-11-04T13:18:07.400Z,0.43
2022-11-04T13:24:31.912Z,0.40
2022-11-04T13:27:03.822Z,0.28
2022-11-04T13:29:34.607Z,0.32
2022-11-04T13:32:24.882Z,0.60
2022-11-04T13:35:12.691Z,0.40
2022-11-04T13:38:13.203Z,0.63
2022-11-04T13:41:31.025Z,0.60
2022-11-04T13:44:32.135Z,0.70
2022-11-04T13:47:04.446Z,0.30
2022-11-04T13:50:05.288Z,0.28
2022-11-04T13:52:52.908Z,0.30
2022-11-04T13:55:32.439Z,0.40
2022-11-04T13:58:02.631Z,0.50
2022-11-04T14:00:34.454Z,0.60
2022-11-04T14:03:27.100Z,0.40
2022-11-04T14:06:00.749Z,0.73
2022-11-04T14:08:28.677Z,0.40
2022-11-04T14:11:13.850Z,0.47
2022-11-04T14:16:52.137Z,0.25
2022-11-04T14:19:48.658Z,0.47
2022-11-04T14:26:51.767Z,0.40
2022-11-04T14:29:34.500Z,0.25
2022-11-04T14:32:04.786Z,0.65
2022-11-04T14:34:36.800Z,0.35
2022-11-04T14:37:20.291Z,0.50
2022-11-04T14:39:56.775Z,0.60
2022-11-04T14:42:51.449Z,0.22
2022-11-04T14:45:47.466Z,0.82
2022-11-04T14:48:57.606Z,0.50
2022-11-04T14:51:40.616Z,1.20
2022-11-04T14:54:24.859Z,0.57
2022-11-04T14:56:52.940Z,0.40
2022-11-04T14:59:47.058Z,0.43
2022-11-04T15:02:19.467Z,0.80
2022-11-04T15:05:16.434Z,0.55
2022-11-04T15:10:30.376Z,0.50
2022-11-04T15:13:02.266Z,0.45
2022-11-04T15:18:50.429Z,0.40
2022-11-04T15:28:51.136Z,0.40
2022-11-04T15:31:57.080Z,0.45
2022-11-04T15:34:26.826Z,0.40
2022-11-04T15:37:00.885Z,0.60
2022-11-04T15:39:46.257Z,0.57
2022-11-04T15:42:51.089Z,0.57
2022-11-04T15:49:07.507Z,0.65
2022-11-04T15:54:58.289Z,1.30
2022-11-04T16:01:54.623Z,0.98
2022-11-04T16:04:53.535Z,0.73
2022-11-04T16:07:23.711Z,0.93
2022-11-04T16:09:54.067Z,1.50
2022-11-04T16:12:59.123Z,1.30
2022-11-04T16:16:09.071Z,1.05
2022-11-04T16:18:54.592Z,0.90
2022-11-04T16:21:26.997Z,1.42
2022-11-04T16:24:01.513Z,0.80
2022-11-04T16:26:37.488Z,1.15
2022-11-04T16:32:31.118Z,0.70
2022-11-04T16:35:02.835Z,0.65
2022-11-04T16:37:31.624Z,2.60
2022-11-04T16:40:21.783Z,4.13
2022-11-04T16:42:52.246Z,4.53
2022-11-04T16:45:33.110Z,3.42
2022-11-04T16:48:02.599Z,2.28
2022-11-04T16:50:32.033Z,2.00
2022-11-04T16:52:59.666Z,1.98
2022-11-04T16:55:29.829Z,1.75
2022-11-04T16:58:30.053Z,1.20
2022-11-04T17:01:23.210Z,1.50
2022-11-04T17:03:50.684Z,1.50
2022-11-04T17:06:18.927Z,1.20
2022-11-04T17:08:46.743Z,1.40
2022-11-04T17:11:14.317Z,1.23
2022-11-04T17:13:42.357Z,1.42
2022-11-04T17:16:15.163Z,1.50
2022-11-04T17:18:42.469Z,1.00
2022-11-04T17:21:17.201Z,1.10
2022-11-04T17:23:44.665Z,1.20
2022-11-04T17:26:12.559Z,1.45
2022-11-04T17:28:40.027Z,0.73
2022-11-04T17:31:10.061Z,1.00
2022-11-04T17:33:37.347Z,0.90
2022-11-04T17:36:07.951Z,0.70
2022-11-04T17:38:35.745Z,0.93
2022-11-04T17:41:24.892Z,0.95
2022-11-04T17:48:20.336Z,1.20
2022-11-04T17:50:49.184Z,0.80
2022-11-04T17:53:40.127Z,0.73
2022-11-04T18:02:07.779Z,0.75
2022-11-04T18:05:39.121Z,1.13
2022-11-04T18:08:10.552Z,1.40
2022-11-04T18:10:40.798Z,1.00
2022-11-04T18:13:13.261Z,0.90
2022-11-04T18:16:31.297Z,1.05
2022-11-04T18:18:59.790Z,1.10
2022-11-04T18:21:31.023Z,1.20
2022-11-04T18:23:59.490Z,1.23
2022-11-04T18:26:27.469Z,1.45
2022-11-04T18:28:56.111Z,1.50
2022-11-04T18:31:35.425Z,1.40
2022-11-04T18:34:43.392Z,1.60
2022-11-04T18:37:12.078Z,1.85
2022-11-04T18:43:07.648Z,1.80
2022-11-04T18:45:36.980Z,1.60
2022-11-04T18:48:21.510Z,1.95
2022-11-04T18:51:04.619Z,2.90
2022-11-04T18:53:36.868Z,2.85
2022-11-04T18:56:10.668Z,2.80
2022-11-04T18:58:55.054Z,3.40
2022-11-04T19:01:32.404Z,3.03
2022-11-04T19:04:00.487Z,3.13
2022-11-04T19:06:34.620Z,3.67
2022-11-04T19:09:32.484Z,3.92
2022-11-04T19:15:51.444Z,3.70
2022-11-04T19:25:10.519Z,5.47
2022-11-04T19:27:38.293Z,6.32
2022-11-04T19:30:06.310Z,6.35
2022-11-04T19:32:33.823Z,5.68
2022-11-04T19:35:05.488Z,5.55
2022-11-04T19:37:33.421Z,5.47
2022-11-04T19:40:09.885Z,4.68
2022-11-04T19:42:58.783Z,6.90
2022-11-04T19:45:26.349Z,7.90
2022-11-04T19:47:57.028Z,9.25
2022-11-04T19:50:24.384Z,8.25
2022-11-04T19:52:51.687Z,7.38
2022-11-04T19:59:16.071Z,5.57
2022-11-04T20:01:43.548Z,11.10
2022-11-04T20:04:15.807Z,7.50
2022-11-04T20:06:44.350Z,6.38
2022-11-04T20:09:15.156Z,10.95
2022-11-04T20:12:10.077Z,13.07
2022-11-04T20:14:37.429Z,6.63
2022-11-04T20:17:06.444Z,5.72
2022-11-04T20:19:34.894Z,5.60
2022-11-04T20:22:02.973Z,9.52
2022-11-04T20:24:30.401Z,6.90
2022-11-04T20:26:57.687Z,7.28
2022-11-04T20:29:25.002Z,8.05
2022-11-04T20:31:52.392Z,7.55
2022-11-04T20:34:22.284Z,5.63
2022-11-04T20:36:49.709Z,9.73
2022-11-04T20:39:19.112Z,8.07
2022-11-04T20:41:47.009Z,6.13
2022-11-04T20:44:15.323Z,4.32
2022-11-04T20:46:43.443Z,3.70
2022-11-04T20:49:11.695Z,4.22
2022-11-04T20:51:50.084Z,3.50
2022-11-04T20:54:20.899Z,3.05
2022-11-04T20:56:48.205Z,3.30
2022-11-04T20:59:16.658Z,3.67
2022-11-04T21:01:46.185Z,3.00
2022-11-04T21:04:29.498Z,1.90
2022-11-04T21:07:02.898Z,1.85
2022-11-04T21:09:30.286Z,2.33
2022-11-04T21:12:01.600Z,2.88
2022-11-04T21:14:30.352Z,3.90
2022-11-04T21:16:57.604Z,1.98
2022-11-04T21:20:16.277Z,2.72
2022-11-04T21:22:43.552Z,4.93
2022-11-04T21:25:10.793Z,2.75
2022-11-04T21:27:41.219Z,2.60
2022-11-04T21:30:12.882Z,1.80
2022-11-04T21:32:40.164Z,2.00
2022-11-04T21:35:07.753Z,3.35
2022-11-04T21:37:37.188Z,1.63
2022-11-04T21:40:05.169Z,16.92
2022-11-04T21:42:32.464Z,18.83
2022-11-04T21:44:59.971Z,14.25
2022-11-04T21:47:27.382Z,10.63
2022-11-04T21:49:57.296Z,2.60
2022-11-04T21:52:24.592Z,1.48
2022-11-04T21:54:51.845Z,1.60
2022-11-04T21:57:29.590Z,2.05
2022-11-04T22:00:18.533Z,1.30
2022-11-04T22:02:52.008Z,2.17
2022-11-04T22:05:44.946Z,2.25
2022-11-04T22:08:45.478Z,2.70
2022-11-04T22:11:18.577Z,3.53
2022-11-04T22:13:46.409Z,3.42
2022-11-04T22:16:19.576Z,3.10
2022-11-04T22:18:47.452Z,3.03
2022-11-04T22:21:17.157Z,3.00
2022-11-04T22:23:45.211Z,2.13
2022-11-04T22:26:18.595Z,1.83
2022-11-04T22:28:46.005Z,2.13
2022-11-04T22:31:19.171Z,2.05
2022-11-04T22:33:46.512Z,2.28
2022-11-04T22:36:14.285Z,1.30
2022-11-04T22:38:42.551Z,1.50
2022-11-04T22:41:31.108Z,1.30
2022-11-04T22:43:58.780Z,1.30
2022-11-04T22:46:31.682Z,5.68
2022-11-04T22:49:01.634Z,36.13
2022-11-04T22:51:31.189Z,20.95
2022-11-04T22:54:04.567Z,15.73
2022-11-04T22:56:35.376Z,6.85
2022-11-04T22:59:03.012Z,2.95
2022-11-04T23:01:31.914Z,2.65
2022-11-04T23:04:00.009Z,2.03
2022-11-04T23:06:27.741Z,1.55
2022-11-04T23:09:21.106Z,1.45
2022-11-04T23:12:06.995Z,1.80
2022-11-04T23:14:54.306Z,1.90
2022-11-04T23:17:41.304Z,2.30
2022-11-04T23:20:12.473Z,2.90
2022-11-04T23:22:58.774Z,2.80
2022-11-04T23:25:26.584Z,2.67
2022-11-04T23:28:13.957Z,2.90
2022-11-04T23:30:43.650Z,2.60
2022-11-04T23:33:13.603Z,2.63
2022-11-04T23:36:08.119Z,2.05
2022-11-04T23:38:35.610Z,2.47
2022-11-04T23:41:26.200Z,2.10
2022-11-04T23:43:53.687Z,1.90
2022-11-04T23:46:43.048Z,1.90
2022-11-04T23:49:14.859Z,1.60
2022-11-04T23:52:00.633Z,1.60
2022-11-04T23:54:46.574Z,1.80
2022-11-04T23:57:34.937Z,1.40
